< Typhoon 199607 1996 Season Typhoon 199609 >
Typhoon 199608 (GLORIA)
General InformationTrack Information on Google MapsDetailed Wind InformationList of All Images || Disaster Info.ResourceGoogle EarthGE AnimationAtom FeedGeoJSON
Detalied Best Track (Time Zone = UTC)
Year Month Day Hour Lat. Long. Pressure (hPa) Wind (kt) Class Image Chart
1996 7 21 06 11.8 132.2 1004 0 2 Image Chart
1996 7 21 12 12.3 131.7 1004 0 2 Image Chart
1996 7 21 18 12.6 131.1 1002 0 2 Image Chart
1996 7 22 00 13.1 130.2 1002 0 2 Image Chart
1996 7 22 06 13.5 129.3 1000 0 2 Image Chart
1996 7 22 12 13.9 128.2 996 35 3 Image Chart
1996 7 22 18 14.5 127.4 996 35 3 Image Chart
1996 7 23 00 15.1 126.5 985 45 3 Image Chart
1996 7 23 06 15.8 125.9 985 45 3 Image Chart
1996 7 23 12 16.3 125.5 980 50 4 Image Chart
1996 7 23 18 16.7 125.0 980 50 4 Image Chart
1996 7 24 00 17.0 124.7 970 60 4 Image Chart
1996 7 24 06 17.3 124.0 965 65 5 Image Chart
1996 7 24 12 17.8 123.4 965 65 5 Image Chart
1996 7 24 18 18.3 122.9 965 65 5 Image Chart
1996 7 25 00 18.9 122.2 965 65 5 Image Chart
1996 7 25 06 19.7 121.8 965 65 5 Image Chart
1996 7 25 12 20.1 121.2 965 65 5 Image Chart
1996 7 25 18 20.4 121.0 965 65 5 Image Chart
1996 7 26 00 20.9 120.9 965 65 5 Image Chart
1996 7 26 06 21.6 120.7 965 65 5 Image Chart
1996 7 26 12 23.1 119.9 975 60 4 Image Chart
1996 7 26 18 24.1 119.0 980 55 4 Image Chart
1996 7 27 00 25.0 117.5 990 40 3 Image Chart
1996 7 27 06 25.6 115.5 992 0 2 Image Chart
1996 7 27 12 26.3 113.6 994 0 2 Image Chart
1996 7 27 18 26.6 111.9 994 0 2 Image Chart
1996 7 28 00 26.3 110.2 996 0 2 Image Chart
1996 7 28 06 26.0 109.6 996 0 2 Image Chart
1996 7 28 12 25.5 108.9 996 0 2 Image Chart
1996 7 28 18 25.7 108.2 996 0 2 Image Chart
Japan Meteorological Agency Best Track Data | Correction Date : 1997-01-07
< Typhoon 199607 1996 Season Typhoon 199609 >

Help